sensor_id;sensor_type;location;lat;lon;timestamp;P1;durP1;ratioP1;P2;durP2;ratioP2
3095;SDS011;1558;42.700;23.360;2022-09-16T00:01:07;8.50;;;3.40;;
3095;SDS011;1558;42.700;23.360;2022-09-16T00:03:36;7.33;;;3.53;;
3095;SDS011;1558;42.700;23.360;2022-09-16T00:06:06;9.63;;;4.17;;
3095;SDS011;1558;42.700;23.360;2022-09-16T00:08:34;6.33;;;3.63;;
3095;SDS011;1558;42.700;23.360;2022-09-16T00:11:03;7.80;;;3.43;;
3095;SDS011;1558;42.700;23.360;2022-09-16T00:13:31;6.63;;;3.83;;
3095;SDS011;1558;42.700;23.360;2022-09-16T00:15:59;8.20;;;3.63;;
3095;SDS011;1558;42.700;23.360;2022-09-16T00:18:27;9.03;;;4.00;;
3095;SDS011;1558;42.700;23.360;2022-09-16T00:20:55;7.37;;;3.50;;
3095;SDS011;1558;42.700;23.360;2022-09-16T00:23:24;4.67;;;3.60;;
3095;SDS011;1558;42.700;23.360;2022-09-16T00:25:53;5.93;;;3.53;;
3095;SDS011;1558;42.700;23.360;2022-09-16T00:28:21;7.57;;;3.50;;
3095;SDS011;1558;42.700;23.360;2022-09-16T00:30:50;8.50;;;4.00;;
3095;SDS011;1558;42.700;23.360;2022-09-16T00:33:18;11.43;;;3.97;;
3095;SDS011;1558;42.700;23.360;2022-09-16T00:35:47;10.00;;;3.90;;
3095;SDS011;1558;42.700;23.360;2022-09-16T00:38:14;11.60;;;5.40;;
3095;SDS011;1558;42.700;23.360;2022-09-16T00:40:44;7.73;;;4.10;;
3095;SDS011;1558;42.700;23.360;2022-09-16T00:43:13;11.17;;;4.10;;
3095;SDS011;1558;42.700;23.360;2022-09-16T00:45:42;6.53;;;4.10;;
3095;SDS011;1558;42.700;23.360;2022-09-16T00:48:14;9.03;;;3.83;;
3095;SDS011;1558;42.700;23.360;2022-09-16T00:50:47;7.77;;;3.60;;
3095;SDS011;1558;42.700;23.360;2022-09-16T00:53:19;6.87;;;3.90;;
3095;SDS011;1558;42.700;23.360;2022-09-16T00:55:51;8.73;;;3.67;;
3095;SDS011;1558;42.700;23.360;2022-09-16T00:58:21;7.13;;;3.77;;
3095;SDS011;1558;42.700;23.360;2022-09-16T01:00:54;5.87;;;3.50;;
3095;SDS011;1558;42.700;23.360;2022-09-16T01:03:22;8.60;;;3.53;;
3095;SDS011;1558;42.700;23.360;2022-09-16T01:05:51;6.30;;;3.23;;
3095;SDS011;1558;42.700;23.360;2022-09-16T01:08:19;8.43;;;3.80;;
3095;SDS011;1558;42.700;23.360;2022-09-16T01:10:47;8.03;;;3.30;;
3095;SDS011;1558;42.700;23.360;2022-09-16T01:13:16;6.90;;;3.10;;
3095;SDS011;1558;42.700;23.360;2022-09-16T01:15:47;7.53;;;3.00;;
3095;SDS011;1558;42.700;23.360;2022-09-16T01:18:25;10.10;;;3.33;;
3095;SDS011;1558;42.700;23.360;2022-09-16T01:21:07;11.83;;;4.10;;
3095;SDS011;1558;42.700;23.360;2022-09-16T01:23:59;8.20;;;4.33;;
3095;SDS011;1558;42.700;23.360;2022-09-16T01:30:06;5.30;;;3.37;;
3095;SDS011;1558;42.700;23.360;2022-09-16T01:32:51;6.13;;;3.43;;
3095;SDS011;1558;42.700;23.360;2022-09-16T01:35:28;6.47;;;3.10;;
3095;SDS011;1558;42.700;23.360;2022-09-16T01:38:16;5.67;;;3.70;;
3095;SDS011;1558;42.700;23.360;2022-09-16T01:40:58;9.53;;;3.30;;
3095;SDS011;1558;42.700;23.360;2022-09-16T01:43:33;8.17;;;3.67;;
3095;SDS011;1558;42.700;23.360;2022-09-16T01:46:10;6.40;;;3.37;;
3095;SDS011;1558;42.700;23.360;2022-09-16T01:48:50;6.60;;;3.27;;
3095;SDS011;1558;42.700;23.360;2022-09-16T01:51:24;5.20;;;3.80;;
3095;SDS011;1558;42.700;23.360;2022-09-16T01:53:59;8.33;;;4.53;;
3095;SDS011;1558;42.700;23.360;2022-09-16T01:56:36;8.80;;;4.30;;
3095;SDS011;1558;42.700;23.360;2022-09-16T01:59:10;8.80;;;3.87;;
3095;SDS011;1558;42.700;23.360;2022-09-16T02:01:44;7.43;;;3.90;;
3095;SDS011;1558;42.700;23.360;2022-09-16T02:04:19;5.83;;;3.73;;
3095;SDS011;1558;42.700;23.360;2022-09-16T02:06:50;14.97;;;4.70;;
3095;SDS011;1558;42.700;23.360;2022-09-16T02:09:21;10.37;;;4.30;;
3095;SDS011;1558;42.700;23.360;2022-09-16T02:11:53;7.00;;;4.67;;
3095;SDS011;1558;42.700;23.360;2022-09-16T02:14:24;10.97;;;5.23;;
3095;SDS011;1558;42.700;23.360;2022-09-16T02:16:57;7.37;;;4.73;;
3095;SDS011;1558;42.700;23.360;2022-09-16T02:19:30;9.60;;;5.13;;
3095;SDS011;1558;42.700;23.360;2022-09-16T02:22:03;10.17;;;4.90;;
3095;SDS011;1558;42.700;23.360;2022-09-16T02:24:36;12.33;;;5.10;;
3095;SDS011;1558;42.700;23.360;2022-09-16T02:27:08;8.93;;;4.70;;
3095;SDS011;1558;42.700;23.360;2022-09-16T02:29:40;8.67;;;4.80;;
3095;SDS011;1558;42.700;23.360;2022-09-16T02:32:13;10.13;;;4.97;;
3095;SDS011;1558;42.700;23.360;2022-09-16T02:34:43;10.40;;;4.43;;
3095;SDS011;1558;42.700;23.360;2022-09-16T02:37:16;8.77;;;4.63;;
3095;SDS011;1558;42.700;23.360;2022-09-16T02:39:48;9.37;;;4.60;;
3095;SDS011;1558;42.700;23.360;2022-09-16T02:42:20;11.17;;;4.77;;
3095;SDS011;1558;42.700;23.360;2022-09-16T02:44:47;6.40;;;4.33;;
3095;SDS011;1558;42.700;23.360;2022-09-16T02:47:16;10.27;;;4.77;;
3095;SDS011;1558;42.700;23.360;2022-09-16T02:49:54;8.90;;;4.57;;
3095;SDS011;1558;42.700;23.360;2022-09-16T02:52:28;7.50;;;4.20;;
3095;SDS011;1558;42.700;23.360;2022-09-16T02:55:07;11.13;;;4.13;;
3095;SDS011;1558;42.700;23.360;2022-09-16T02:57:42;6.33;;;4.33;;
3095;SDS011;1558;42.700;23.360;2022-09-16T03:00:10;10.23;;;4.90;;
3095;SDS011;1558;42.700;23.360;2022-09-16T03:02:38;13.40;;;4.87;;
3095;SDS011;1558;42.700;23.360;2022-09-16T03:05:08;7.97;;;4.20;;
3095;SDS011;1558;42.700;23.360;2022-09-16T03:07:36;8.80;;;4.77;;
3095;SDS011;1558;42.700;23.360;2022-09-16T03:10:08;8.50;;;4.63;;
3095;SDS011;1558;42.700;23.360;2022-09-16T03:12:41;7.17;;;4.47;;
3095;SDS011;1558;42.700;23.360;2022-09-16T03:15:22;7.97;;;4.07;;
3095;SDS011;1558;42.700;23.360;2022-09-16T03:18:10;8.17;;;4.70;;
3095;SDS011;1558;42.700;23.360;2022-09-16T03:20:56;8.83;;;5.37;;
3095;SDS011;1558;42.700;23.360;2022-09-16T03:23:35;11.87;;;5.23;;
3095;SDS011;1558;42.700;23.360;2022-09-16T03:26:11;8.90;;;4.33;;
3095;SDS011;1558;42.700;23.360;2022-09-16T03:28:46;7.47;;;4.90;;
3095;SDS011;1558;42.700;23.360;2022-09-16T03:31:23;8.77;;;4.43;;
3095;SDS011;1558;42.700;23.360;2022-09-16T03:33:57;9.83;;;5.17;;
3095;SDS011;1558;42.700;23.360;2022-09-16T03:36:32;10.00;;;4.57;;
3095;SDS011;1558;42.700;23.360;2022-09-16T03:39:05;10.10;;;5.20;;
3095;SDS011;1558;42.700;23.360;2022-09-16T03:41:34;10.73;;;4.77;;
3095;SDS011;1558;42.700;23.360;2022-09-16T03:44:02;8.73;;;4.40;;
3095;SDS011;1558;42.700;23.360;2022-09-16T03:46:30;12.90;;;5.40;;
3095;SDS011;1558;42.700;23.360;2022-09-16T03:49:00;7.90;;;4.80;;
3095;SDS011;1558;42.700;23.360;2022-09-16T03:51:29;9.53;;;5.40;;
3095;SDS011;1558;42.700;23.360;2022-09-16T03:53:58;10.43;;;5.37;;
3095;SDS011;1558;42.700;23.360;2022-09-16T03:56:26;13.73;;;5.83;;
3095;SDS011;1558;42.700;23.360;2022-09-16T03:58:53;19.37;;;5.87;;
3095;SDS011;1558;42.700;23.360;2022-09-16T04:01:21;9.00;;;4.50;;
3095;SDS011;1558;42.700;23.360;2022-09-16T04:03:49;11.37;;;5.80;;
3095;SDS011;1558;42.700;23.360;2022-09-16T04:06:17;14.20;;;6.20;;
3095;SDS011;1558;42.700;23.360;2022-09-16T04:08:45;15.03;;;5.93;;
3095;SDS011;1558;42.700;23.360;2022-09-16T04:11:17;10.80;;;5.00;;
3095;SDS011;1558;42.700;23.360;2022-09-16T04:13:45;13.03;;;5.73;;
3095;SDS011;1558;42.700;23.360;2022-09-16T04:16:17;10.43;;;5.00;;
3095;SDS011;1558;42.700;23.360;2022-09-16T04:18:46;11.77;;;4.90;;
3095;SDS011;1558;42.700;23.360;2022-09-16T04:21:15;10.17;;;5.10;;
3095;SDS011;1558;42.700;23.360;2022-09-16T04:23:43;11.27;;;5.33;;
3095;SDS011;1558;42.700;23.360;2022-09-16T04:26:11;9.93;;;5.20;;
3095;SDS011;1558;42.700;23.360;2022-09-16T04:28:40;10.93;;;4.73;;
3095;SDS011;1558;42.700;23.360;2022-09-16T04:31:09;13.47;;;5.40;;
3095;SDS011;1558;42.700;23.360;2022-09-16T04:33:38;12.90;;;5.27;;
3095;SDS011;1558;42.700;23.360;2022-09-16T04:36:08;8.87;;;5.13;;
3095;SDS011;1558;42.700;23.360;2022-09-16T04:38:38;17.20;;;7.33;;
3095;SDS011;1558;42.700;23.360;2022-09-16T04:41:09;10.67;;;7.77;;
3095;SDS011;1558;42.700;23.360;2022-09-16T04:43:38;13.23;;;5.87;;
3095;SDS011;1558;42.700;23.360;2022-09-16T04:46:08;9.87;;;5.20;;
3095;SDS011;1558;42.700;23.360;2022-09-16T04:48:36;12.10;;;5.60;;
3095;SDS011;1558;42.700;23.360;2022-09-16T04:51:05;12.60;;;5.63;;
3095;SDS011;1558;42.700;23.360;2022-09-16T04:53:34;17.27;;;5.77;;
3095;SDS011;1558;42.700;23.360;2022-09-16T04:56:04;14.33;;;5.60;;
3095;SDS011;1558;42.700;23.360;2022-09-16T04:58:33;10.47;;;5.13;;
3095;SDS011;1558;42.700;23.360;2022-09-16T05:01:05;11.47;;;6.10;;
3095;SDS011;1558;42.700;23.360;2022-09-16T05:03:39;13.60;;;6.03;;
3095;SDS011;1558;42.700;23.360;2022-09-16T05:06:09;16.48;;;6.72;;
3095;SDS011;1558;42.700;23.360;2022-09-16T05:08:43;20.83;;;7.50;;
3095;SDS011;1558;42.700;23.360;2022-09-16T05:11:11;19.10;;;7.30;;
3095;SDS011;1558;42.700;23.360;2022-09-16T05:13:41;28.83;;;8.48;;
3095;SDS011;1558;42.700;23.360;2022-09-16T05:16:10;21.20;;;6.72;;
3095;SDS011;1558;42.700;23.360;2022-09-16T05:18:41;23.13;;;7.70;;
3095;SDS011;1558;42.700;23.360;2022-09-16T05:21:11;26.73;;;6.82;;
3095;SDS011;1558;42.700;23.360;2022-09-16T05:23:41;17.83;;;6.22;;
3095;SDS011;1558;42.700;23.360;2022-09-16T05:26:13;14.80;;;7.20;;
3095;SDS011;1558;42.700;23.360;2022-09-16T05:28:42;16.95;;;7.15;;
3095;SDS011;1558;42.700;23.360;2022-09-16T05:31:11;20.73;;;7.45;;
3095;SDS011;1558;42.700;23.360;2022-09-16T05:33:42;22.13;;;7.30;;
3095;SDS011;1558;42.700;23.360;2022-09-16T05:36:13;18.38;;;7.13;;
3095;SDS011;1558;42.700;23.360;2022-09-16T05:38:42;15.38;;;7.45;;
3095;SDS011;1558;42.700;23.360;2022-09-16T05:41:30;16.77;;;6.22;;
3095;SDS011;1558;42.700;23.360;2022-09-16T05:43:58;16.90;;;6.95;;
3095;SDS011;1558;42.700;23.360;2022-09-16T05:46:28;12.43;;;7.22;;
3095;SDS011;1558;42.700;23.360;2022-09-16T05:48:57;15.85;;;7.40;;
3095;SDS011;1558;42.700;23.360;2022-09-16T05:51:25;13.60;;;7.25;;
3095;SDS011;1558;42.700;23.360;2022-09-16T05:53:53;18.17;;;9.02;;
3095;SDS011;1558;42.700;23.360;2022-09-16T05:56:22;22.38;;;10.02;;
3095;SDS011;1558;42.700;23.360;2022-09-16T05:58:52;14.27;;;8.68;;
3095;SDS011;1558;42.700;23.360;2022-09-16T06:01:21;19.83;;;7.63;;
3095;SDS011;1558;42.700;23.360;2022-09-16T06:03:51;14.82;;;7.38;;
3095;SDS011;1558;42.700;23.360;2022-09-16T06:06:22;17.02;;;7.28;;
3095;SDS011;1558;42.700;23.360;2022-09-16T06:08:52;18.00;;;5.88;;
3095;SDS011;1558;42.700;23.360;2022-09-16T06:11:21;13.88;;;6.72;;
3095;SDS011;1558;42.700;23.360;2022-09-16T06:13:51;15.23;;;7.60;;
3095;SDS011;1558;42.700;23.360;2022-09-16T06:16:21;12.77;;;6.93;;
3095;SDS011;1558;42.700;23.360;2022-09-16T06:18:51;16.13;;;6.53;;
3095;SDS011;1558;42.700;23.360;2022-09-16T06:21:21;13.60;;;5.93;;
3095;SDS011;1558;42.700;23.360;2022-09-16T06:23:50;11.48;;;6.15;;
3095;SDS011;1558;42.700;23.360;2022-09-16T06:26:19;12.90;;;6.18;;
3095;SDS011;1558;42.700;23.360;2022-09-16T06:28:47;16.17;;;6.57;;
3095;SDS011;1558;42.700;23.360;2022-09-16T06:31:16;14.52;;;5.80;;
3095;SDS011;1558;42.700;23.360;2022-09-16T06:33:45;29.92;;;8.75;;
3095;SDS011;1558;42.700;23.360;2022-09-16T06:36:16;12.75;;;6.00;;
3095;SDS011;1558;42.700;23.360;2022-09-16T06:38:46;16.80;;;6.47;;
3095;SDS011;1558;42.700;23.360;2022-09-16T06:41:15;13.32;;;6.30;;
3095;SDS011;1558;42.700;23.360;2022-09-16T06:43:44;22.65;;;8.93;;
3095;SDS011;1558;42.700;23.360;2022-09-16T06:46:12;16.52;;;7.05;;
3095;SDS011;1558;42.700;23.360;2022-09-16T06:48:42;14.90;;;5.07;;
3095;SDS011;1558;42.700;23.360;2022-09-16T06:51:12;12.55;;;4.47;;
3095;SDS011;1558;42.700;23.360;2022-09-16T06:53:42;9.80;;;4.95;;
3095;SDS011;1558;42.700;23.360;2022-09-16T06:56:13;9.95;;;4.60;;
3095;SDS011;1558;42.700;23.360;2022-09-16T06:58:44;13.63;;;4.88;;
3095;SDS011;1558;42.700;23.360;2022-09-16T07:01:15;17.25;;;6.07;;
3095;SDS011;1558;42.700;23.360;2022-09-16T07:03:45;11.32;;;4.47;;
3095;SDS011;1558;42.700;23.360;2022-09-16T07:06:14;22.70;;;8.07;;
3095;SDS011;1558;42.700;23.360;2022-09-16T07:08:43;8.45;;;5.32;;
3095;SDS011;1558;42.700;23.360;2022-09-16T07:11:13;16.95;;;5.63;;
3095;SDS011;1558;42.700;23.360;2022-09-16T07:13:43;8.20;;;4.78;;
3095;SDS011;1558;42.700;23.360;2022-09-16T07:16:13;12.52;;;4.70;;
3095;SDS011;1558;42.700;23.360;2022-09-16T07:18:42;11.77;;;5.50;;
3095;SDS011;1558;42.700;23.360;2022-09-16T07:21:12;12.00;;;4.53;;
3095;SDS011;1558;42.700;23.360;2022-09-16T07:23:42;9.60;;;4.60;;
3095;SDS011;1558;42.700;23.360;2022-09-16T07:26:14;16.83;;;6.07;;
3095;SDS011;1558;42.700;23.360;2022-09-16T07:28:44;9.27;;;4.97;;
3095;SDS011;1558;42.700;23.360;2022-09-16T07:31:14;11.48;;;4.82;;
3095;SDS011;1558;42.700;23.360;2022-09-16T07:33:44;9.95;;;4.38;;
3095;SDS011;1558;42.700;23.360;2022-09-16T07:36:15;7.07;;;4.75;;
3095;SDS011;1558;42.700;23.360;2022-09-16T07:38:44;8.07;;;4.90;;
3095;SDS011;1558;42.700;23.360;2022-09-16T07:41:15;12.80;;;5.63;;
3095;SDS011;1558;42.700;23.360;2022-09-16T07:43:44;9.68;;;6.18;;
3095;SDS011;1558;42.700;23.360;2022-09-16T07:46:13;10.02;;;6.18;;
3095;SDS011;1558;42.700;23.360;2022-09-16T07:48:43;10.70;;;4.22;;
3095;SDS011;1558;42.700;23.360;2022-09-16T07:51:12;8.60;;;4.40;;
3095;SDS011;1558;42.700;23.360;2022-09-16T07:53:42;7.85;;;4.50;;
3095;SDS011;1558;42.700;23.360;2022-09-16T07:56:11;10.05;;;5.68;;
3095;SDS011;1558;42.700;23.360;2022-09-16T07:58:42;10.55;;;6.05;;
3095;SDS011;1558;42.700;23.360;2022-09-16T08:01:11;9.45;;;4.28;;
3095;SDS011;1558;42.700;23.360;2022-09-16T08:03:41;9.27;;;4.20;;
3095;SDS011;1558;42.700;23.360;2022-09-16T08:06:10;7.60;;;4.30;;
3095;SDS011;1558;42.700;23.360;2022-09-16T08:08:39;14.13;;;5.15;;
3095;SDS011;1558;42.700;23.360;2022-09-16T08:11:08;11.77;;;4.68;;
3095;SDS011;1558;42.700;23.360;2022-09-16T08:13:37;11.27;;;4.95;;
3095;SDS011;1558;42.700;23.360;2022-09-16T08:16:09;14.68;;;7.55;;
3095;SDS011;1558;42.700;23.360;2022-09-16T08:18:40;9.57;;;4.45;;
3095;SDS011;1558;42.700;23.360;2022-09-16T08:21:09;6.28;;;3.60;;
3095;SDS011;1558;42.700;23.360;2022-09-16T08:23:38;8.38;;;4.05;;
3095;SDS011;1558;42.700;23.360;2022-09-16T08:26:07;10.27;;;4.65;;
3095;SDS011;1558;42.700;23.360;2022-09-16T08:28:38;7.93;;;4.13;;
3095;SDS011;1558;42.700;23.360;2022-09-16T08:31:28;8.80;;;4.43;;
3095;SDS011;1558;42.700;23.360;2022-09-16T08:33:56;8.50;;;4.18;;
3095;SDS011;1558;42.700;23.360;2022-09-16T08:36:24;10.77;;;4.68;;
3095;SDS011;1558;42.700;23.360;2022-09-16T08:38:53;13.27;;;4.35;;
3095;SDS011;1558;42.700;23.360;2022-09-16T08:41:30;11.93;;;5.75;;
3095;SDS011;1558;42.700;23.360;2022-09-16T08:44:11;11.30;;;5.10;;
3095;SDS011;1558;42.700;23.360;2022-09-16T08:46:50;7.70;;;4.10;;
3095;SDS011;1558;42.700;23.360;2022-09-16T08:49:23;11.75;;;5.22;;
3095;SDS011;1558;42.700;23.360;2022-09-16T08:51:57;11.65;;;4.78;;
3095;SDS011;1558;42.700;23.360;2022-09-16T08:54:30;8.80;;;4.10;;
3095;SDS011;1558;42.700;23.360;2022-09-16T08:57:02;8.27;;;4.32;;
3095;SDS011;1558;42.700;23.360;2022-09-16T08:59:33;12.27;;;4.60;;
3095;SDS011;1558;42.700;23.360;2022-09-16T09:04:54;26.42;;;7.05;;
3095;SDS011;1558;42.700;23.360;2022-09-16T09:07:26;13.88;;;5.80;;
3095;SDS011;1558;42.700;23.360;2022-09-16T09:10:04;19.10;;;8.07;;
3095;SDS011;1558;42.700;23.360;2022-09-16T09:12:41;14.13;;;5.88;;
3095;SDS011;1558;42.700;23.360;2022-09-16T09:15:21;18.15;;;7.65;;
3095;SDS011;1558;42.700;23.360;2022-09-16T09:18:01;13.13;;;5.95;;
3095;SDS011;1558;42.700;23.360;2022-09-16T09:20:44;18.60;;;6.10;;
3095;SDS011;1558;42.700;23.360;2022-09-16T09:26:11;15.52;;;5.10;;
3095;SDS011;1558;42.700;23.360;2022-09-16T09:28:57;17.17;;;5.97;;
3095;SDS011;1558;42.700;23.360;2022-09-16T09:31:49;8.48;;;4.65;;
3095;SDS011;1558;42.700;23.360;2022-09-16T09:34:29;9.73;;;5.05;;
3095;SDS011;1558;42.700;23.360;2022-09-16T09:37:13;11.98;;;4.70;;
3095;SDS011;1558;42.700;23.360;2022-09-16T09:39:53;14.77;;;4.82;;
3095;SDS011;1558;42.700;23.360;2022-09-16T09:42:33;14.02;;;4.85;;
3095;SDS011;1558;42.700;23.360;2022-09-16T09:45:10;11.60;;;5.15;;
3095;SDS011;1558;42.700;23.360;2022-09-16T09:47:45;11.82;;;4.78;;
3095;SDS011;1558;42.700;23.360;2022-09-16T09:50:18;9.88;;;5.30;;
3095;SDS011;1558;42.700;23.360;2022-09-16T09:52:52;12.55;;;5.25;;
3095;SDS011;1558;42.700;23.360;2022-09-16T09:55:24;12.10;;;4.78;;
3095;SDS011;1558;42.700;23.360;2022-09-16T09:57:56;14.93;;;5.82;;
3095;SDS011;1558;42.700;23.360;2022-09-16T10:00:30;11.50;;;5.15;;
3095;SDS011;1558;42.700;23.360;2022-09-16T10:03:04;11.50;;;4.97;;
3095;SDS011;1558;42.700;23.360;2022-09-16T10:05:34;15.65;;;4.85;;
3095;SDS011;1558;42.700;23.360;2022-09-16T10:08:04;13.85;;;5.18;;
3095;SDS011;1558;42.700;23.360;2022-09-16T10:10:45;10.07;;;4.40;;
3095;SDS011;1558;42.700;23.360;2022-09-16T10:13:15;11.45;;;4.30;;
3095;SDS011;1558;42.700;23.360;2022-09-16T10:15:44;8.55;;;3.80;;
3095;SDS011;1558;42.700;23.360;2022-09-16T10:18:21;11.27;;;4.78;;
3095;SDS011;1558;42.700;23.360;2022-09-16T10:20:57;14.35;;;4.43;;
3095;SDS011;1558;42.700;23.360;2022-09-16T10:23:28;12.23;;;4.40;;
3095;SDS011;1558;42.700;23.360;2022-09-16T10:28:53;41.58;;;6.53;;
3095;SDS011;1558;42.700;23.360;2022-09-16T10:31:22;18.08;;;5.13;;
3095;SDS011;1558;42.700;23.360;2022-09-16T10:33:58;22.17;;;4.95;;
3095;SDS011;1558;42.700;23.360;2022-09-16T10:36:31;14.10;;;3.60;;
3095;SDS011;1558;42.700;23.360;2022-09-16T10:39:01;7.80;;;3.38;;
3095;SDS011;1558;42.700;23.360;2022-09-16T10:41:31;9.82;;;3.72;;
3095;SDS011;1558;42.700;23.360;2022-09-16T10:44:02;6.70;;;3.60;;
3095;SDS011;1558;42.700;23.360;2022-09-16T10:46:48;5.97;;;3.40;;
3095;SDS011;1558;42.700;23.360;2022-09-16T10:49:19;8.57;;;3.35;;
3095;SDS011;1558;42.700;23.360;2022-09-16T10:52:11;7.28;;;3.10;;
3095;SDS011;1558;42.700;23.360;2022-09-16T10:54:42;7.30;;;3.70;;
3095;SDS011;1558;42.700;23.360;2022-09-16T10:57:19;8.57;;;3.60;;
3095;SDS011;1558;42.700;23.360;2022-09-16T10:59:56;7.10;;;3.87;;
3095;SDS011;1558;42.700;23.360;2022-09-16T11:02:28;8.07;;;4.40;;
3095;SDS011;1558;42.700;23.360;2022-09-16T11:05:12;6.47;;;3.60;;
3095;SDS011;1558;42.700;23.360;2022-09-16T11:07:54;7.17;;;3.67;;
3095;SDS011;1558;42.700;23.360;2022-09-16T11:10:36;8.83;;;3.57;;
3095;SDS011;1558;42.700;23.360;2022-09-16T11:19:03;7.50;;;3.03;;
3095;SDS011;1558;42.700;23.360;2022-09-16T11:24:37;6.13;;;2.67;;
3095;SDS011;1558;42.700;23.360;2022-09-16T11:27:25;6.95;;;2.58;;
3095;SDS011;1558;42.700;23.360;2022-09-16T11:30:10;4.57;;;2.80;;
3095;SDS011;1558;42.700;23.360;2022-09-16T11:32:51;5.03;;;2.85;;
3095;SDS011;1558;42.700;23.360;2022-09-16T11:35:38;4.60;;;2.42;;
3095;SDS011;1558;42.700;23.360;2022-09-16T11:38:16;6.63;;;3.83;;
3095;SDS011;1558;42.700;23.360;2022-09-16T11:40:53;7.65;;;5.15;;
3095;SDS011;1558;42.700;23.360;2022-09-16T11:43:39;9.75;;;6.53;;
3095;SDS011;1558;42.700;23.360;2022-09-16T11:46:15;8.77;;;4.60;;
3095;SDS011;1558;42.700;23.360;2022-09-16T11:48:55;7.22;;;3.67;;
3095;SDS011;1558;42.700;23.360;2022-09-16T11:51:48;6.32;;;3.30;;
3095;SDS011;1558;42.700;23.360;2022-09-16T11:54:30;4.13;;;3.72;;
3095;SDS011;1558;42.700;23.360;2022-09-16T11:57:12;6.13;;;3.47;;
3095;SDS011;1558;42.700;23.360;2022-09-16T11:59:47;8.80;;;3.13;;
3095;SDS011;1558;42.700;23.360;2022-09-16T12:02:20;6.95;;;3.17;;
3095;SDS011;1558;42.700;23.360;2022-09-16T12:04:53;18.20;;;4.38;;
3095;SDS011;1558;42.700;23.360;2022-09-16T12:07:25;12.93;;;4.32;;
3095;SDS011;1558;42.700;23.360;2022-09-16T12:10:01;9.75;;;5.18;;
3095;SDS011;1558;42.700;23.360;2022-09-16T12:12:35;16.40;;;4.88;;
3095;SDS011;1558;42.700;23.360;2022-09-16T12:15:12;10.00;;;3.70;;
3095;SDS011;1558;42.700;23.360;2022-09-16T12:17:47;12.27;;;4.75;;
3095;SDS011;1558;42.700;23.360;2022-09-16T12:20:20;13.23;;;5.75;;
3095;SDS011;1558;42.700;23.360;2022-09-16T12:22:53;28.98;;;5.68;;
3095;SDS011;1558;42.700;23.360;2022-09-16T12:25:27;10.05;;;3.85;;
3095;SDS011;1558;42.700;23.360;2022-09-16T12:28:02;7.00;;;4.10;;
3095;SDS011;1558;42.700;23.360;2022-09-16T12:30:34;14.38;;;4.65;;
3095;SDS011;1558;42.700;23.360;2022-09-16T12:33:05;8.68;;;3.55;;
3095;SDS011;1558;42.700;23.360;2022-09-16T12:35:41;9.48;;;4.75;;
3095;SDS011;1558;42.700;23.360;2022-09-16T12:38:26;6.57;;;3.60;;
3095;SDS011;1558;42.700;23.360;2022-09-16T12:40:58;15.32;;;5.93;;
3095;SDS011;1558;42.700;23.360;2022-09-16T12:43:54;10.20;;;4.78;;
3095;SDS011;1558;42.700;23.360;2022-09-16T12:53:16;6.45;;;4.30;;
3095;SDS011;1558;42.700;23.360;2022-09-16T12:56:03;18.27;;;5.70;;
3095;SDS011;1558;42.700;23.360;2022-09-16T12:58:43;10.73;;;6.28;;
3095;SDS011;1558;42.700;23.360;2022-09-16T13:01:33;7.55;;;3.60;;
3095;SDS011;1558;42.700;23.360;2022-09-16T13:04:07;15.98;;;4.53;;
3095;SDS011;1558;42.700;23.360;2022-09-16T13:06:43;7.72;;;4.50;;
3095;SDS011;1558;42.700;23.360;2022-09-16T13:09:17;8.15;;;3.90;;
3095;SDS011;1558;42.700;23.360;2022-09-16T13:11:51;5.75;;;3.80;;
3095;SDS011;1558;42.700;23.360;2022-09-16T13:14:44;7.13;;;4.80;;
3095;SDS011;1558;42.700;23.360;2022-09-16T13:17:14;6.43;;;3.72;;
3095;SDS011;1558;42.700;23.360;2022-09-16T13:19:53;7.25;;;3.40;;
3095;SDS011;1558;42.700;23.360;2022-09-16T13:22:24;8.15;;;4.22;;
3095;SDS011;1558;42.700;23.360;2022-09-16T13:24:57;7.55;;;3.67;;
3095;SDS011;1558;42.700;23.360;2022-09-16T13:27:34;8.00;;;3.40;;
3095;SDS011;1558;42.700;23.360;2022-09-16T13:30:15;5.30;;;3.88;;
3095;SDS011;1558;42.700;23.360;2022-09-16T13:32:58;6.03;;;3.70;;
3095;SDS011;1558;42.700;23.360;2022-09-16T13:35:36;5.20;;;4.03;;
3095;SDS011;1558;42.700;23.360;2022-09-16T13:38:22;6.68;;;4.00;;
3095;SDS011;1558;42.700;23.360;2022-09-16T13:41:01;11.73;;;4.45;;
3095;SDS011;1558;42.700;23.360;2022-09-16T13:43:31;6.82;;;4.05;;
3095;SDS011;1558;42.700;23.360;2022-09-16T13:46:08;6.47;;;5.10;;
3095;SDS011;1558;42.700;23.360;2022-09-16T13:48:42;5.95;;;5.22;;
3095;SDS011;1558;42.700;23.360;2022-09-16T13:51:16;8.80;;;4.82;;
3095;SDS011;1558;42.700;23.360;2022-09-16T13:53:47;9.05;;;6.93;;
3095;SDS011;1558;42.700;23.360;2022-09-16T13:59:16;6.32;;;4.70;;
3095;SDS011;1558;42.700;23.360;2022-09-16T14:02:00;6.90;;;5.80;;
3095;SDS011;1558;42.700;23.360;2022-09-16T14:04:43;11.40;;;7.72;;
3095;SDS011;1558;42.700;23.360;2022-09-16T14:07:27;6.18;;;4.38;;
3095;SDS011;1558;42.700;23.360;2022-09-16T14:10:05;7.28;;;3.78;;
3095;SDS011;1558;42.700;23.360;2022-09-16T14:12:41;6.22;;;3.08;;
3095;SDS011;1558;42.700;23.360;2022-09-16T14:15:20;4.53;;;3.25;;
3095;SDS011;1558;42.700;23.360;2022-09-16T14:17:53;5.90;;;3.38;;
3095;SDS011;1558;42.700;23.360;2022-09-16T14:20:25;4.03;;;3.25;;
3095;SDS011;1558;42.700;23.360;2022-09-16T14:22:59;5.85;;;3.55;;
3095;SDS011;1558;42.700;23.360;2022-09-16T14:25:29;6.38;;;4.40;;
3095;SDS011;1558;42.700;23.360;2022-09-16T14:28:07;6.97;;;4.85;;
3095;SDS011;1558;42.700;23.360;2022-09-16T14:30:43;6.97;;;4.80;;
3095;SDS011;1558;42.700;23.360;2022-09-16T14:33:13;6.65;;;4.88;;
3095;SDS011;1558;42.700;23.360;2022-09-16T14:35:42;5.10;;;4.45;;
3095;SDS011;1558;42.700;23.360;2022-09-16T14:38:13;7.88;;;4.47;;
3095;SDS011;1558;42.700;23.360;2022-09-16T14:41:05;8.00;;;5.40;;
3095;SDS011;1558;42.700;23.360;2022-09-16T14:43:34;6.88;;;4.18;;
3095;SDS011;1558;42.700;23.360;2022-09-16T14:46:04;5.75;;;4.40;;
3095;SDS011;1558;42.700;23.360;2022-09-16T14:48:36;8.15;;;5.55;;
3095;SDS011;1558;42.700;23.360;2022-09-16T14:51:09;6.78;;;4.18;;
3095;SDS011;1558;42.700;23.360;2022-09-16T14:53:42;9.35;;;6.32;;
3095;SDS011;1558;42.700;23.360;2022-09-16T14:56:37;5.85;;;4.03;;
3095;SDS011;1558;42.700;23.360;2022-09-16T14:59:06;8.93;;;5.90;;
3095;SDS011;1558;42.700;23.360;2022-09-16T15:01:37;11.25;;;6.78;;
3095;SDS011;1558;42.700;23.360;2022-09-16T15:04:08;9.80;;;4.57;;
3095;SDS011;1558;42.700;23.360;2022-09-16T15:06:44;10.60;;;4.88;;
3095;SDS011;1558;42.700;23.360;2022-09-16T15:09:19;7.95;;;4.18;;
3095;SDS011;1558;42.700;23.360;2022-09-16T15:11:55;6.43;;;4.00;;
3095;SDS011;1558;42.700;23.360;2022-09-16T15:14:26;8.40;;;4.32;;
3095;SDS011;1558;42.700;23.360;2022-09-16T15:16:54;9.18;;;5.47;;
3095;SDS011;1558;42.700;23.360;2022-09-16T15:19:28;13.30;;;5.35;;
3095;SDS011;1558;42.700;23.360;2022-09-16T15:22:00;10.57;;;4.53;;
3095;SDS011;1558;42.700;23.360;2022-09-16T15:24:29;7.95;;;4.35;;
3095;SDS011;1558;42.700;23.360;2022-09-16T15:27:01;8.82;;;5.30;;
3095;SDS011;1558;42.700;23.360;2022-09-16T15:29:30;8.52;;;3.70;;
3095;SDS011;1558;42.700;23.360;2022-09-16T15:32:14;6.30;;;3.25;;
3095;SDS011;1558;42.700;23.360;2022-09-16T15:34:46;12.80;;;6.00;;
3095;SDS011;1558;42.700;23.360;2022-09-16T15:37:28;8.80;;;5.82;;
3095;SDS011;1558;42.700;23.360;2022-09-16T15:40:08;12.32;;;4.70;;
3095;SDS011;1558;42.700;23.360;2022-09-16T15:42:38;6.22;;;4.35;;
3095;SDS011;1558;42.700;23.360;2022-09-16T15:45:12;13.57;;;5.93;;
3095;SDS011;1558;42.700;23.360;2022-09-16T15:47:49;8.07;;;4.82;;
3095;SDS011;1558;42.700;23.360;2022-09-16T15:50:23;11.68;;;7.30;;
3095;SDS011;1558;42.700;23.360;2022-09-16T15:52:56;10.63;;;5.40;;
3095;SDS011;1558;42.700;23.360;2022-09-16T15:55:30;10.23;;;4.63;;
3095;SDS011;1558;42.700;23.360;2022-09-16T15:58:04;22.25;;;5.97;;
3095;SDS011;1558;42.700;23.360;2022-09-16T16:03:48;9.75;;;4.82;;
3095;SDS011;1558;42.700;23.360;2022-09-16T16:06:22;8.55;;;4.07;;